Time;durP1;ratioP1;P1;durP2;ratioP2;P2;SDS_P1;SDS_P2;PMS_P1;PMS_P2;Temp;Humidity;BMP_temperature;BMP_pressure;BME280_temperature;BME280_humidity;BME280_pressure;Samples;Min_cycle;Max_cycle;Signal;HPM_P1;HPM_P2
2022/05/28 00:00:04;;;;;;;;;;;;;;;25.10;40.88;94945.19;2073771;28;1097;-62
2022/05/28 00:01:08;;;;;;;;;;;;;;;25.10;40.83;94955.94;2074116;28;1363;-62
2022/05/28 00:02:11;;;;;;;;;;;;;;;25.10;40.63;94951.41;2073657;28;1202;-64
2022/05/28 00:03:14;;;;;;;;;;;;;;;25.10;40.87;94948.72;2073611;28;1106;-62
2022/05/28 00:04:15;;;;;;;;;;;;;;;25.10;40.58;94951.41;2073263;28;1128;-64
2022/05/28 00:05:18;;;;;;;;;;;;;;;25.11;40.74;94955.72;2073772;28;1026;-66
2022/05/28 00:06:22;;;;;;;;;;;;;;;25.11;40.71;94949.53;2073495;28;991;-62
2022/05/28 00:07:24;;;;;;;;;;;;;;;25.09;40.85;94947.06;2073707;28;998;-62
2022/05/28 00:08:27;;;;;;;;;;;;;;;25.11;40.83;94952.22;2068754;28;1302;-63
2022/05/28 00:09:29;;;;;;;;;;;;;;;25.12;40.66;94956.53;2069116;28;1982;-62
2022/05/28 00:10:33;;;;;;;;;;;;;;;25.11;40.96;94952.22;2073732;28;1138;-62
2022/05/28 00:11:38;;;;;;;;;;;;;;;25.11;40.70;94952.22;2073273;28;1177;-63
2022/05/28 00:12:41;;;;;;;;;;;;;;;25.10;40.89;94946.03;2073679;28;1156;-62
2022/05/28 00:13:43;;;;;;;;;;;;;;;25.10;40.55;94950.56;2073901;28;1199;-63
2022/05/28 00:14:46;;;;;;;;;;;;;;;25.10;40.93;94943.34;2073810;28;1562;-62
2022/05/28 00:15:48;;;;;;;;;;;;;;;25.10;40.84;94942.50;2073485;28;1580;-63
2022/05/28 00:16:51;;;;;;;;;;;;;;;25.10;40.99;94940.66;2073685;28;1074;-62
2022/05/28 00:17:53;;;;;;;;;;;;;;;25.11;40.74;94950.34;2073690;28;1025;-64
2022/05/28 00:18:55;;;;;;;;;;;;;;;25.11;40.74;94946.84;2073310;28;1081;-62
2022/05/28 00:19:57;;;;;;;;;;;;;;;25.10;40.92;94943.34;2068647;28;1208;-66
2022/05/28 00:21:02;;;;;;;;;;;;;;;25.10;40.85;94940.66;2070103;28;1157;-62
2022/05/28 00:22:04;;;;;;;;;;;;;;;25.10;40.74;94946.03;2073599;28;1075;-63
2022/05/28 00:23:07;;;;;;;;;;;;;;;25.11;40.93;94953.03;2074005;28;1062;-62
2022/05/28 00:24:08;;;;;;;;;;;;;;;25.10;40.86;94948.72;2073716;28;1022;-63
2022/05/28 00:25:13;;;;;;;;;;;;;;;25.11;40.85;94946.84;2073766;28;1057;-62
2022/05/28 00:26:16;;;;;;;;;;;;;;;25.11;40.75;94946.84;2072738;28;1174;-65
2022/05/28 00:27:21;;;;;;;;;;;;;;;25.11;40.60;94944.16;2073623;28;1725;-62
2022/05/28 00:28:22;;;;;;;;;;;;;;;25.10;40.67;94937.13;2073508;28;1181;-63
2022/05/28 00:29:25;;;;;;;;;;;;;;;25.10;40.73;94935.28;2073650;28;1987;-63
2022/05/28 00:30:27;;;;;;;;;;;;;;;25.12;40.66;94943.06;2073705;28;1069;-63
2022/05/28 00:31:30;;;;;;;;;;;;;;;25.10;40.58;94929.06;2065042;28;1098;-67
2022/05/28 00:32:32;;;;;;;;;;;;;;;25.12;40.78;94932.31;2073312;28;1245;-62
2022/05/28 00:33:35;;;;;;;;;;;;;;;25.11;40.60;94934.19;2073315;28;1131;-64
2022/05/28 00:34:37;;;;;;;;;;;;;;;25.10;40.74;94932.59;2073591;28;1119;-62
2022/05/28 00:35:40;;;;;;;;;;;;;;;25.10;40.83;94927.22;2073633;28;1131;-63
2022/05/28 00:36:41;;;;;;;;;;;;;;;25.10;40.68;94924.53;2073111;28;1088;-62
2022/05/28 00:37:45;;;;;;;;;;;;;;;25.11;40.90;94919.94;2073601;28;1181;-62
2022/05/28 00:38:47;;;;;;;;;;;;;;;25.09;40.68;94925.56;2073561;28;1054;-63
2022/05/28 00:39:50;;;;;;;;;;;;;;;25.09;40.88;94917.50;2073523;28;1114;-62
2022/05/28 00:40:53;;;;;;;;;;;;;;;25.10;40.85;94921.81;2073532;28;1214;-63
2022/05/28 00:41:56;;;;;;;;;;;;;;;25.10;40.94;94908.38;2073072;28;1127;-63
2022/05/28 00:43:00;;;;;;;;;;;;;;;25.10;40.82;94908.38;2064633;28;1138;-64
2022/05/28 00:44:04;;;;;;;;;;;;;;;25.12;40.69;94913.50;2073830;28;1117;-62
2022/05/28 00:45:07;;;;;;;;;;;;;;;25.11;40.75;94919.94;2075182;28;830;-63
2022/05/28 00:46:11;;;;;;;;;;;;;;;25.10;40.72;94907.53;2074896;28;1130;-62
2022/05/28 00:47:15;;;;;;;;;;;;;;;25.11;40.78;94906.50;2075090;28;1047;-62
2022/05/28 00:48:20;;;;;;;;;;;;;;;25.10;40.62;94903.00;2075046;28;1111;-63
2022/05/28 00:49:25;;;;;;;;;;;;;;;25.10;40.65;94897.63;2074714;28;1914;-62
2022/05/28 00:50:26;;;;;;;;;;;;;;;25.11;40.89;94904.63;2074955;28;1130;-62
2022/05/28 00:51:30;;;;;;;;;;;;;;;25.10;40.84;94891.41;2075051;28;1074;-63
2022/05/28 00:52:33;;;;;;;;;;;;;;;25.10;40.97;94894.09;2075035;28;1201;-62
2022/05/28 00:53:36;;;;;;;;;;;;;;;25.10;40.94;94894.94;2070797;28;1537;-62
2022/05/28 00:54:40;;;;;;;;;;;;;;;25.11;40.80;94895.75;2069911;28;1137;-62
2022/05/28 00:55:43;;;;;;;;;;;;;;;25.09;40.59;94893.28;2074970;28;1336;-64
2022/05/28 00:56:45;;;;;;;;;;;;;;;25.10;40.56;94889.56;2074696;28;1069;-62
2022/05/28 00:57:48;;;;;;;;;;;;;;;25.10;40.92;94889.56;2075065;28;1090;-63
2022/05/28 00:58:52;;;;;;;;;;;;;;;25.10;40.82;94889.56;2080616;28;1231;-62
2022/05/28 00:59:55;;;;;;;;;;;;;;;25.10;40.93;94889.56;2082989;28;1296;-63
2022/05/28 01:00:57;;;;;;;;;;;;;;;25.10;40.72;94891.41;2083214;28;995;-62
2022/05/28 01:02:02;;;;;;;;;;;;;;;25.10;40.83;94892.25;2083180;28;1258;-63
2022/05/28 01:03:09;;;;;;;;;;;;;;;25.09;40.85;94879.84;2082928;28;1535;-63
2022/05/28 01:04:16;;;;;;;;;;;;;;;25.09;40.77;94887.91;2083020;28;1185;-62
2022/05/28 01:05:20;;;;;;;;;;;;;;;25.11;40.79;94883.13;2078506;28;1164;-63
2022/05/28 01:06:29;;;;;;;;;;;;;;;25.09;40.80;94879.84;2079022;28;1118;-63
2022/05/28 01:07:36;;;;;;;;;;;;;;;25.11;40.66;94882.31;2083130;28;1146;-62
2022/05/28 01:08:41;;;;;;;;;;;;;;;25.11;40.83;94882.31;2082944;28;1310;-64
2022/05/28 01:09:46;;;;;;;;;;;;;;;25.11;40.67;94885.81;2083282;28;1902;-62
2022/05/28 01:10:53;;;;;;;;;;;;;;;25.11;40.91;94893.88;2082566;28;1126;-62
2022/05/28 01:12:00;;;;;;;;;;;;;;;25.10;40.62;94894.94;2083064;28;1126;-62
2022/05/28 01:13:06;;;;;;;;;;;;;;;25.11;40.87;94896.56;2083252;28;1101;-62
2022/05/28 01:14:13;;;;;;;;;;;;;;;25.11;40.64;94901.13;2083112;28;1038;-64
2022/05/28 01:15:18;;;;;;;;;;;;;;;25.09;40.78;94904.03;2083201;28;1015;-63
2022/05/28 01:16:25;;;;;;;;;;;;;;;25.09;40.56;94903.25;2078375;28;1117;-62
2022/05/28 01:17:30;;;;;;;;;;;;;;;25.09;40.72;94906.72;2077964;28;1114;-62
2022/05/28 01:18:33;;;;;;;;;;;;;;;25.09;40.66;94914.81;2082552;28;1077;-62
2022/05/28 01:19:43;;;;;;;;;;;;;;;25.09;40.95;94914.81;2083014;28;1223;-63
2022/05/28 01:20:48;;;;;;;;;;;;;;;25.11;40.89;94920.75;2083014;28;1007;-60
2022/05/28 01:21:56;;;;;;;;;;;;;;;25.11;40.58;94928.00;2082934;28;1101;-64
2022/05/28 01:23:13;;;;;;;;;;;;;;;25.11;40.80;94930.69;2083305;28;1014;-64
2022/05/28 01:24:19;;;;;;;;;;;;;;;25.11;40.87;94928.81;2082990;28;1180;-63
2022/05/28 01:25:26;;;;;;;;;;;;;;;25.11;40.92;94931.50;2082775;28;1187;-64
2022/05/28 01:26:32;;;;;;;;;;;;;;;25.11;40.61;94930.69;2082702;28;1118;-62
2022/05/28 01:27:39;;;;;;;;;;;;;;;25.10;40.77;94929.91;2078121;28;1118;-64
2022/05/28 01:28:44;;;;;;;;;;;;;;;25.09;41.01;94930.13;2078142;28;1178;-63
2022/05/28 01:29:48;;;;;;;;;;;;;;;25.09;40.83;94933.63;2082991;28;1010;-63
2022/05/28 01:30:52;;;;;;;;;;;;;;;25.09;40.89;94941.69;2082683;28;1998;-63
2022/05/28 01:31:55;;;;;;;;;;;;;;;25.10;40.79;94961.31;2082792;28;1015;-63
2022/05/28 01:32:59;;;;;;;;;;;;;;;25.11;40.66;94976.41;2082307;28;1114;-62
2022/05/28 01:34:04;;;;;;;;;;;;;;;25.11;40.66;94990.66;2082724;28;1220;-63
2022/05/28 01:35:08;;;;;;;;;;;;;;;25.12;40.88;95003.03;2082936;28;1019;-62
2022/05/28 01:36:13;;;;;;;;;;;;;;;25.12;40.85;95000.34;2082614;28;1504;-64
2022/05/28 01:37:17;;;;;;;;;;;;;;;25.11;40.87;94987.97;2082724;28;1062;-65
2022/05/28 01:38:23;;;;;;;;;;;;;;;25.10;41.00;94985.50;2082795;28;1158;-63
2022/05/28 01:39:26;;;;;;;;;;;;;;;25.10;40.80;94989.03;2074649;28;1063;-64
2022/05/28 01:40:29;;;;;;;;;;;;;;;25.11;41.04;94989.84;2082025;28;1134;-62
2022/05/28 01:41:33;;;;;;;;;;;;;;;25.09;40.93;94992.78;2082743;28;1339;-62
2022/05/28 01:42:40;;;;;;;;;;;;;;;25.10;40.83;94994.41;2082787;28;1014;-63
2022/05/28 01:43:44;;;;;;;;;;;;;;;25.10;40.82;94991.72;2082920;28;1086;-62
2022/05/28 01:44:49;;;;;;;;;;;;;;;25.10;40.69;94982.81;2082713;28;1002;-62
2022/05/28 01:45:51;;;;;;;;;;;;;;;25.10;40.88;94989.03;2082920;28;1134;-62
2022/05/28 01:46:54;;;;;;;;;;;;;;;25.10;40.64;94989.03;2082887;28;1045;-61
2022/05/28 01:47:58;;;;;;;;;;;;;;;25.10;40.86;94994.41;2081983;28;1164;-63
2022/05/28 01:49:01;;;;;;;;;;;;;;;25.10;40.68;94982.81;2082870;28;1484;-62
2022/05/28 01:50:04;;;;;;;;;;;;;;;25.10;40.74;94985.50;2080291;28;1347;-63
2022/05/28 01:51:08;;;;;;;;;;;;;;;25.09;40.72;94984.69;2077154;28;1902;-62
2022/05/28 01:52:11;;;;;;;;;;;;;;;25.09;40.74;94979.31;2082795;28;1053;-63
2022/05/28 01:54:07;;;;;;;;;;;;;;;25.10;40.61;94980.13;2082711;28;1118;-63
2022/05/28 01:54:43;;;;;;;;;;;;;;;25.10;40.95;94975.59;2082434;28;1337;-65
2022/05/28 01:55:46;;;;;;;;;;;;;;;25.10;40.69;94969.38;2082306;28;1285;-62
2022/05/28 01:56:50;;;;;;;;;;;;;;;25.10;41.01;94972.06;2082603;28;1138;-63
2022/05/28 01:57:54;;;;;;;;;;;;;;;25.09;40.66;94970.44;2082499;28;1122;-64
2022/05/28 01:58:56;;;;;;;;;;;;;;;25.11;40.72;94979.09;2082797;28;1493;-62
2022/05/28 01:59:59;;;;;;;;;;;;;;;25.11;40.73;94977.22;2082631;28;1022;-63
2022/05/28 02:01:02;;;;;;;;;;;;;;;25.10;40.74;94975.59;2083086;28;1207;-63
2022/05/28 02:02:07;;;;;;;;;;;;;;;25.11;40.76;94974.53;2075616;28;996;-66
2022/05/28 02:03:09;;;;;;;;;;;;;;;25.12;40.67;94975.34;2081361;28;1122;-63
2022/05/28 02:04:12;;;;;;;;;;;;;;;25.12;40.79;94980.72;2082489;28;1382;-62
2022/05/28 02:05:14;;;;;;;;;;;;;;;25.11;40.70;94971.84;2082597;28;1750;-62
2022/05/28 02:06:17;;;;;;;;;;;;;;;25.11;40.97;94979.91;2082470;28;1134;-63
2022/05/28 02:07:19;;;;;;;;;;;;;;;25.11;41.06;94977.22;2082597;28;1161;-63
2022/05/28 02:08:22;;;;;;;;;;;;;;;25.09;41.00;94971.25;2082308;28;1338;-63
2022/05/28 02:09:27;;;;;;;;;;;;;;;25.09;40.74;94971.25;2082754;28;1112;-62
2022/05/28 02:10:30;;;;;;;;;;;;;;;25.10;40.83;94974.75;2082285;28;1926;-62
2022/05/28 02:11:40;;;;;;;;;;;;;;;25.09;40.68;94978.50;2082681;28;1076;-63
2022/05/28 02:12:59;;;;;;;;;;;;;;;25.09;40.90;94976.63;2081440;28;1097;-62
2022/05/28 02:14:09;;;;;;;;;;;;;;;25.10;40.91;94978.28;2077586;28;1173;-64
2022/05/28 02:15:17;;;;;;;;;;;;;;;25.10;40.76;94975.59;2082687;28;1018;-62
2022/05/28 02:16:26;;;;;;;;;;;;;;;25.10;40.68;94975.59;2082763;28;808;-62
2022/05/28 02:17:33;;;;;;;;;;;;;;;25.11;40.82;94979.91;2082098;28;1077;-64
2022/05/28 02:18:43;;;;;;;;;;;;;;;25.10;40.91;94975.59;2082632;28;1034;-63
2022/05/28 02:19:57;;;;;;;;;;;;;;;25.11;40.87;94977.22;2082650;28;1018;-63
2022/05/28 02:21:03;;;;;;;;;;;;;;;25.10;40.93;94978.28;2082368;28;1010;-63
2022/05/28 02:22:10;;;;;;;;;;;;;;;25.10;40.87;94980.97;2082454;28;1141;-63
2022/05/28 02:23:15;;;;;;;;;;;;;;;25.10;41.06;94985.50;2082564;28;1058;-62
2022/05/28 02:24:21;;;;;;;;;;;;;;;25.08;40.94;94984.97;2077768;28;1146;-66
2022/05/28 02:25:34;;;;;;;;;;;;;;;25.09;41.01;94975.81;2077207;28;1227;-62
2022/05/28 02:26:41;;;;;;;;;;;;;;;25.10;40.94;94975.59;2082285;28;1118;-63
2022/05/28 02:27:45;;;;;;;;;;;;;;;25.11;40.77;94974.53;2082261;28;1133;-63
2022/05/28 02:28:48;;;;;;;;;;;;;;;25.11;40.97;94974.53;2082299;28;1158;-63
2022/05/28 02:29:52;;;;;;;;;;;;;;;25.09;40.84;94970.44;2082819;28;1607;-62
2022/05/28 02:31:01;;;;;;;;;;;;;;;25.09;40.83;94965.88;2082221;28;1902;-64
2022/05/28 02:32:12;;;;;;;;;;;;;;;25.09;40.84;94971.25;2082007;28;1061;-62
2022/05/28 02:33:14;;;;;;;;;;;;;;;25.10;40.66;94967.53;2082538;28;1086;-62
2022/05/28 02:34:18;;;;;;;;;;;;;;;25.11;40.97;94969.16;2082337;28;1102;-64
2022/05/28 02:35:20;;;;;;;;;;;;;;;25.11;40.90;94971.84;2082099;28;1174;-63
2022/05/28 02:36:23;;;;;;;;;;;;;;;25.11;41.03;94963.78;2073043;28;1116;-62
2022/05/28 02:37:26;;;;;;;;;;;;;;;25.11;40.92;94974.53;2082129;28;1340;-63
2022/05/28 02:38:30;;;;;;;;;;;;;;;25.09;40.78;94971.25;2082058;28;1138;-62
2022/05/28 02:39:32;;;;;;;;;;;;;;;25.11;40.70;94971.84;2081958;28;1015;-64
2022/05/28 02:40:34;;;;;;;;;;;;;;;25.10;40.68;94975.59;2082330;28;1070;-64
2022/05/28 02:41:36;;;;;;;;;;;;;;;25.10;40.77;94972.06;2082131;28;1480;-64
2022/05/28 02:42:39;;;;;;;;;;;;;;;25.09;41.06;94976.63;2082367;28;1069;-62
2022/05/28 02:43:41;;;;;;;;;;;;;;;25.10;40.95;94969.38;2082204;28;1161;-62
2022/05/28 02:44:43;;;;;;;;;;;;;;;25.10;40.91;94972.91;2082560;28;1280;-62
2022/05/28 02:45:47;;;;;;;;;;;;;;;25.10;40.84;94964.00;2082313;28;1185;-62
2022/05/28 02:46:49;;;;;;;;;;;;;;;25.10;40.68;94955.94;2079693;28;991;-65
2022/05/28 02:47:51;;;;;;;;;;;;;;;25.11;40.64;94962.97;2076710;28;1114;-64
2022/05/28 02:48:54;;;;;;;;;;;;;;;25.10;40.99;94959.47;2081956;28;1169;-62
2022/05/28 02:49:56;;;;;;;;;;;;;;;25.10;40.75;94961.31;2082278;28;1006;-62
2022/05/28 02:51:02;;;;;;;;;;;;;;;25.10;40.95;94962.16;2082083;28;1050;-63
2022/05/28 02:52:05;;;;;;;;;;;;;;;25.10;40.70;94954.09;2082142;28;1906;-62
2022/05/28 02:53:08;;;;;;;;;;;;;;;25.09;40.78;94955.13;2082443;28;1118;-62
2022/05/28 02:54:10;;;;;;;;;;;;;;;25.10;40.74;94950.56;2081836;28;1122;-64
2022/05/28 02:55:12;;;;;;;;;;;;;;;25.08;41.04;94942.75;2082308;28;1010;-62
2022/05/28 02:56:14;;;;;;;;;;;;;;;25.09;40.65;94939.00;2082250;28;1019;-62
2022/05/28 02:57:18;;;;;;;;;;;;;;;25.10;40.92;94940.66;2082219;28;1027;-62
2022/05/28 02:58:19;;;;;;;;;;;;;;;25.11;40.97;94938.78;2076015;28;1401;-60
2022/05/28 02:59:23;;;;;;;;;;;;;;;25.10;40.89;94935.28;2069032;28;1072;-60
2022/05/28 03:00:26;;;;;;;;;;;;;;;25.11;40.94;94942.28;2073776;28;1115;-62
2022/05/28 03:01:33;;;;;;;;;;;;;;;25.10;40.80;94940.66;2074019;28;1261;-60
2022/05/28 03:02:36;;;;;;;;;;;;;;;25.11;40.88;94941.47;2073891;28;1019;-60
2022/05/28 03:03:38;;;;;;;;;;;;;;;25.11;40.77;94944.16;2074343;28;1107;-61
2022/05/28 03:04:41;;;;;;;;;;;;;;;25.11;40.88;94942.28;2073880;28;1217;-61
2022/05/28 03:05:42;;;;;;;;;;;;;;;25.11;40.83;94947.66;2073834;28;1058;-61
2022/05/28 03:06:45;;;;;;;;;;;;;;;25.11;40.95;94941.47;2073397;28;1193;-62
2022/05/28 03:07:47;;;;;;;;;;;;;;;25.11;41.06;94962.97;2073906;28;1015;-60
2022/05/28 03:08:50;;;;;;;;;;;;;;;25.11;40.79;94963.78;2073556;28;1080;-61
2022/05/28 03:09:53;;;;;;;;;;;;;;;25.12;40.99;94961.91;2068834;28;1122;-61
2022/05/28 03:10:56;;;;;;;;;;;;;;;25.11;40.82;94963.78;2069116;28;1497;-61
2022/05/28 03:11:58;;;;;;;;;;;;;;;25.11;40.91;94969.16;2073870;28;1910;-61
2022/05/28 03:13:01;;;;;;;;;;;;;;;25.10;40.90;94970.22;2073908;28;1142;-62
2022/05/28 03:14:03;;;;;;;;;;;;;;;25.11;40.83;94963.78;2074076;28;1105;-61
2022/05/28 03:15:06;;;;;;;;;;;;;;;25.10;40.92;94962.16;2074075;28;1113;-60
2022/05/28 03:16:09;;;;;;;;;;;;;;;25.11;40.71;94963.78;2073922;28;1078;-60
2022/05/28 03:17:13;;;;;;;;;;;;;;;25.10;40.97;94964.00;2073661;28;1108;-61
2022/05/28 03:18:15;;;;;;;;;;;;;;;25.10;40.83;94954.09;2073779;28;1158;-62
2022/05/28 03:19:18;;;;;;;;;;;;;;;25.10;40.81;94955.94;2073893;28;1014;-64
2022/05/28 03:20:20;;;;;;;;;;;;;;;25.10;40.85;94959.47;2073465;28;1279;-61
2022/05/28 03:21:23;;;;;;;;;;;;;;;25.10;40.70;94956.78;2069138;28;1039;-61
2022/05/28 03:22:24;;;;;;;;;;;;;;;25.10;40.63;94962.16;2068996;28;1317;-61
2022/05/28 03:23:27;;;;;;;;;;;;;;;25.11;40.99;94961.09;2073874;28;1011;-61
2022/05/28 03:24:29;;;;;;;;;;;;;;;25.09;40.85;94955.13;2073515;28;1500;-61
2022/05/28 03:25:32;;;;;;;;;;;;;;;25.11;40.80;94960.28;2073824;28;1290;-62
2022/05/28 03:26:34;;;;;;;;;;;;;;;25.10;41.08;94959.47;2073881;28;1019;-60
2022/05/28 03:27:37;;;;;;;;;;;;;;;25.11;40.72;94962.97;2073943;28;1081;-62
2022/05/28 03:28:39;;;;;;;;;;;;;;;25.09;40.85;94963.19;2073558;28;1165;-62
2022/05/28 03:29:42;;;;;;;;;;;;;;;25.10;40.82;94964.84;2073893;28;1668;-60
2022/05/28 03:30:44;;;;;;;;;;;;;;;25.10;40.72;94967.53;2073646;28;1127;-61
2022/05/28 03:31:46;;;;;;;;;;;;;;;25.11;41.10;94963.78;2073180;28;2001;-62
2022/05/28 03:32:50;;;;;;;;;;;;;;;25.10;40.93;94964.84;2069159;28;1058;-61
2022/05/28 03:33:53;;;;;;;;;;;;;;;25.10;41.03;94978.28;2070223;28;1177;-62
2022/05/28 03:34:55;;;;;;;;;;;;;;;25.11;40.92;94969.16;2074316;28;1060;-62
2022/05/28 03:35:58;;;;;;;;;;;;;;;25.11;40.73;94973.72;2073762;28;1062;-61
2022/05/28 03:37:01;;;;;;;;;;;;;;;25.11;40.96;94971.84;2073750;28;1133;-61
2022/05/28 03:38:03;;;;;;;;;;;;;;;25.11;40.99;94969.16;2073773;28;1031;-62
2022/05/28 03:39:06;;;;;;;;;;;;;;;25.11;40.68;94963.78;2073326;28;1105;-61
2022/05/28 03:40:08;;;;;;;;;;;;;;;25.10;40.76;94962.16;2073945;28;1355;-62
2022/05/28 03:41:11;;;;;;;;;;;;;;;25.10;40.87;94955.94;2073604;28;1232;-62
2022/05/28 03:42:13;;;;;;;;;;;;;;;25.11;40.74;94957.59;2073863;28;1088;-61
2022/05/28 03:43:15;;;;;;;;;;;;;;;25.10;40.86;94954.09;2073795;28;1193;-62
2022/05/28 03:44:17;;;;;;;;;;;;;;;25.11;40.80;94952.22;2066017;28;1090;-65
2022/05/28 03:45:20;;;;;;;;;;;;;;;25.10;40.68;94951.41;2072953;28;1050;-62
2022/05/28 03:46:25;;;;;;;;;;;;;;;25.10;40.77;94946.03;2073130;28;1173;-62
2022/05/28 03:47:27;;;;;;;;;;;;;;;25.09;40.70;94952.44;2073845;28;1042;-61
2022/05/28 03:48:33;;;;;;;;;;;;;;;25.11;40.72;94946.84;2073666;28;1185;-61
2022/05/28 03:49:37;;;;;;;;;;;;;;;25.10;40.80;94940.66;2073447;28;1071;-61
2022/05/28 03:50:39;;;;;;;;;;;;;;;25.11;40.87;94947.66;2073827;28;1061;-62
2022/05/28 03:51:41;;;;;;;;;;;;;;;25.12;41.01;94943.88;2073683;28;1544;-61
2022/05/28 03:52:44;;;;;;;;;;;;;;;25.11;40.83;94944.97;2073473;28;1976;-62
2022/05/28 03:53:46;;;;;;;;;;;;;;;25.12;40.85;94943.88;2073210;28;1270;-61
2022/05/28 03:54:49;;;;;;;;;;;;;;;25.12;41.01;94941.19;2073617;28;1134;-62
2022/05/28 03:55:51;;;;;;;;;;;;;;;25.13;40.80;94933.97;2064952;28;1167;-62
2022/05/28 03:56:57;;;;;;;;;;;;;;;25.13;40.89;94936.66;2073440;28;1257;-61
2022/05/28 03:57:59;;;;;;;;;;;;;;;25.13;40.82;94933.97;2073568;28;984;-62
2022/05/28 03:59:02;;;;;;;;;;;;;;;25.13;40.92;94931.28;2080652;28;1152;-61
2022/05/28 04:00:04;;;;;;;;;;;;;;;25.12;40.77;94935.00;2081430;28;1754;-62
2022/05/28 04:01:07;;;;;;;;;;;;;;;25.12;40.98;94929.63;2081543;28;1018;-61
2022/05/28 04:02:09;;;;;;;;;;;;;;;25.12;40.68;94924.25;2081690;28;1110;-61
2022/05/28 04:03:12;;;;;;;;;;;;;;;25.12;40.70;94932.31;2081700;28;1169;-61
2022/05/28 04:04:15;;;;;;;;;;;;;;;25.12;40.98;94930.44;2081864;28;1085;-63
2022/05/28 04:05:18;;;;;;;;;;;;;;;25.13;40.72;94920.53;2081869;28;1089;-62
2022/05/28 04:06:20;;;;;;;;;;;;;;;25.12;41.00;94927.75;2078371;28;1102;-65
2022/05/28 04:07:23;;;;;;;;;;;;;;;25.12;40.88;94917.00;2076195;28;1031;-61
2022/05/28 04:08:25;;;;;;;;;;;;;;;25.12;40.90;94927.75;2081088;28;1086;-62
2022/05/28 04:09:28;;;;;;;;;;;;;;;25.12;40.96;94914.31;2081810;28;1061;-61
2022/05/28 04:10:30;;;;;;;;;;;;;;;25.13;40.88;94918.66;2081738;28;1061;-62
2022/05/28 04:11:33;;;;;;;;;;;;;;;25.12;40.78;94917.00;2081800;28;1122;-61
2022/05/28 04:12:35;;;;;;;;;;;;;;;25.13;40.88;94920.53;2081704;28;1985;-61
2022/05/28 04:13:37;;;;;;;;;;;;;;;25.13;40.78;94915.16;2081867;28;1073;-65
2022/05/28 04:14:40;;;;;;;;;;;;;;;25.12;40.94;94911.63;2081811;28;1333;-63
2022/05/28 04:15:43;;;;;;;;;;;;;;;25.12;40.87;94919.69;2081203;28;1125;-62
2022/05/28 04:16:45;;;;;;;;;;;;;;;25.12;40.67;94913.50;2081782;28;1049;-62
2022/05/28 04:17:48;;;;;;;;;;;;;;;25.12;40.67;94911.63;2077470;28;1098;-62
2022/05/28 04:18:49;;;;;;;;;;;;;;;25.12;40.76;94911.63;2078395;28;1042;-61
2022/05/28 04:19:53;;;;;;;;;;;;;;;25.12;40.70;94916.19;2083240;28;1085;-62
2022/05/28 04:20:55;;;;;;;;;;;;;;;25.12;40.98;94908.13;2083523;28;995;-63
2022/05/28 04:21:58;;;;;;;;;;;;;;;25.12;40.89;94911.63;2083334;28;1154;-65
2022/05/28 04:23:00;;;;;;;;;;;;;;;25.13;40.59;94913.28;2083248;28;1019;-63
2022/05/28 04:24:03;;;;;;;;;;;;;;;25.14;40.79;94908.72;2083432;28;1085;-63
2022/05/28 04:25:05;;;;;;;;;;;;;;;25.14;40.86;94914.09;2083409;28;1157;-61
2022/05/28 04:26:08;;;;;;;;;;;;;;;25.14;40.95;94912.22;2083277;28;1189;-62
2022/05/28 04:27:10;;;;;;;;;;;;;;;25.13;40.94;94913.28;2083234;28;1114;-62
2022/05/28 04:28:13;;;;;;;;;;;;;;;25.14;40.87;94920.28;2083369;28;1029;-63
2022/05/28 04:29:15;;;;;;;;;;;;;;;25.14;40.60;94917.59;2078896;28;1577;-62
2022/05/28 04:30:18;;;;;;;;;;;;;;;25.14;40.83;94928.34;2078428;28;1008;-65
2022/05/28 04:31:20;;;;;;;;;;;;;;;25.14;40.87;94931.03;2083018;28;1149;-61
2022/05/28 04:32:23;;;;;;;;;;;;;;;25.14;40.69;94941.78;2083473;28;1116;-62
2022/05/28 04:33:25;;;;;;;;;;;;;;;25.14;40.88;94952.53;2083283;28;1925;-62
2022/05/28 04:34:28;;;;;;;;;;;;;;;25.14;40.67;94979.44;2083074;28;1019;-62
2022/05/28 04:35:31;;;;;;;;;;;;;;;25.15;40.71;94989.13;2083272;28;1142;-61
2022/05/28 04:36:34;;;;;;;;;;;;;;;25.15;40.72;95007.13;2083087;28;1190;-62
2022/05/28 04:37:36;;;;;;;;;;;;;;;25.15;40.81;95021.38;2083153;28;1178;-61
2022/05/28 04:38:38;;;;;;;;;;;;;;;25.15;40.78;95015.19;2082962;28;1018;-63
2022/05/28 04:39:40;;;;;;;;;;;;;;;25.14;40.81;95011.69;2083355;28;1069;-61
2022/05/28 04:40:43;;;;;;;;;;;;;;;25.12;40.98;94986.91;2078469;28;1312;-62
2022/05/28 04:41:46;;;;;;;;;;;;;;;25.13;40.92;94961.66;2078646;28;1177;-61
2022/05/28 04:42:48;;;;;;;;;;;;;;;25.12;40.71;94949.25;2083172;28;1173;-62
2022/05/28 04:43:51;;;;;;;;;;;;;;;25.11;41.05;94941.47;2083475;28;1010;-62
2022/05/28 04:44:53;;;;;;;;;;;;;;;25.10;41.03;94932.59;2083342;28;1042;-61
2022/05/28 04:45:56;;;;;;;;;;;;;;;25.11;40.93;94936.88;2082810;28;1126;-61
2022/05/28 04:46:58;;;;;;;;;;;;;;;25.11;40.83;94926.13;2083190;28;1126;-65
2022/05/28 04:48:01;;;;;;;;;;;;;;;25.11;40.90;94918.06;2083179;28;1097;-62
2022/05/28 04:49:04;;;;;;;;;;;;;;;25.13;40.75;94917.84;2083125;28;1086;-61
2022/05/28 04:50:06;;;;;;;;;;;;;;;25.11;40.67;94912.69;2083127;28;1118;-61
2022/05/28 04:51:10;;;;;;;;;;;;;;;25.12;40.69;94914.31;2083241;28;1189;-62
2022/05/28 04:52:12;;;;;;;;;;;;;;;25.14;40.55;94914.91;2078302;28;1018;-61
2022/05/28 04:53:15;;;;;;;;;;;;;;;25.14;40.78;94916.78;2078214;28;1902;-62
2022/05/28 04:54:17;;;;;;;;;;;;;;;25.15;40.86;94931.84;2083290;28;1034;-62
2022/05/28 04:55:20;;;;;;;;;;;;;;;25.15;40.82;94929.16;2083111;28;1279;-62
2022/05/28 04:56:21;;;;;;;;;;;;;;;25.15;40.97;94935.34;2083222;28;1041;-61
2022/05/28 04:57:24;;;;;;;;;;;;;;;25.15;40.91;94938.03;2083194;28;1770;-62
2022/05/28 04:58:27;;;;;;;;;;;;;;;25.15;40.66;94946.09;2080566;28;1299;-63
2022/05/28 04:59:30;;;;;;;;;;;;;;;25.15;40.81;94946.09;2075127;28;1022;-61
2022/05/28 05:00:33;;;;;;;;;;;;;;;25.15;40.67;94958.72;2074216;28;1126;-61
2022/05/28 05:01:36;;;;;;;;;;;;;;;25.16;40.68;94980.00;2075040;28;1031;-62
2022/05/28 05:02:38;;;;;;;;;;;;;;;25.15;40.88;94985.63;2074871;28;1689;-62
2022/05/28 05:03:41;;;;;;;;;;;;;;;25.10;40.91;94983.66;2069583;28;1085;-66
2022/05/28 05:04:43;;;;;;;;;;;;;;;25.15;40.63;94989.13;2071638;28;991;-61
2022/05/28 05:05:46;;;;;;;;;;;;;;;25.15;40.93;94991.81;2074877;28;1111;-61
2022/05/28 05:06:49;;;;;;;;;;;;;;;25.15;40.77;94981.03;2074734;28;1177;-61
2022/05/28 05:07:52;;;;;;;;;;;;;;;25.14;40.95;94984.81;2074301;28;1787;-62
2022/05/28 05:08:54;;;;;;;;;;;;;;;25.15;40.67;94988.31;2074628;28;1269;-61
2022/05/28 05:09:57;;;;;;;;;;;;;;;25.15;40.93;94988.31;2075063;28;1022;-62
2022/05/28 05:10:58;;;;;;;;;;;;;;;25.14;40.84;94990.19;2074613;28;1091;-61
2022/05/28 05:12:01;;;;;;;;;;;;;;;25.14;40.64;94995.56;2074811;28;1110;-63
2022/05/28 05:13:03;;;;;;;;;;;;;;;25.15;40.62;95004.44;2074852;28;1107;-62
2022/05/28 05:14:06;;;;;;;;;;;;;;;25.15;40.73;95007.94;2074823;28;1910;-63
2022/05/28 05:15:09;;;;;;;;;;;;;;;25.14;40.87;95009.00;2066568;28;1078;-66
2022/05/28 05:16:12;;;;;;;;;;;;;;;25.13;40.62;95010.06;2074327;28;1160;-61
2022/05/28 05:17:15;;;;;;;;;;;;;;;25.14;40.91;95009.00;2074826;28;1166;-61
2022/05/28 05:18:18;;;;;;;;;;;;;;;25.13;40.95;95010.06;2074964;28;1162;-63
2022/05/28 05:19:19;;;;;;;;;;;;;;;25.12;40.96;95005.72;2074746;28;1118;-62
2022/05/28 05:20:22;;;;;;;;;;;;;;;25.14;40.92;95000.94;2074770;28;1130;-63
2022/05/28 05:21:24;;;;;;;;;;;;;;;25.14;40.79;94994.75;2074708;28;1735;-62
2022/05/28 05:22:28;;;;;;;;;;;;;;;25.13;40.89;94990.44;2074346;28;1122;-64
2022/05/28 05:23:30;;;;;;;;;;;;;;;25.13;40.62;94985.88;2074942;28;1043;-61
2022/05/28 05:24:33;;;;;;;;;;;;;;;25.12;40.72;94978.03;2074615;28;1189;-61
2022/05/28 05:25:35;;;;;;;;;;;;;;;25.12;40.85;94973.47;2074891;28;1643;-62
2022/05/28 05:26:38;;;;;;;;;;;;;;;25.12;40.63;94978.84;2065801;28;1248;-63
2022/05/28 05:27:41;;;;;;;;;;;;;;;25.13;40.75;94971.63;2074442;28;1190;-62
2022/05/28 05:28:44;;;;;;;;;;;;;;;25.13;40.74;94960.88;2075059;28;908;-63
2022/05/28 05:29:46;;;;;;;;;;;;;;;25.13;40.88;94960.88;2074011;28;1096;-61
2022/05/28 05:30:49;;;;;;;;;;;;;;;25.13;40.76;94958.97;2074685;28;1038;-62
2022/05/28 05:31:51;;;;;;;;;;;;;;;25.13;40.89;94969.75;2074718;28;1069;-62
2022/05/28 05:32:55;;;;;;;;;;;;;;;25.12;40.92;94973.47;2074898;28;1014;-62
2022/05/28 05:33:56;;;;;;;;;;;;;;;25.13;40.98;94972.44;2074526;28;1983;-62
2022/05/28 05:34:59;;;;;;;;;;;;;;;25.14;40.90;94987.50;2074840;28;1205;-62